createdAt,value
2023-04-06T00:02:20.378Z,13.40
2023-04-06T00:04:51.622Z,13.50
2023-04-06T00:07:22.807Z,13.40
2023-04-06T00:09:53.672Z,13.20
2023-04-06T00:12:24.633Z,13.20
2023-04-06T00:15:00.942Z,13.20
2023-04-06T00:17:32.702Z,13.10
2023-04-06T00:20:04.115Z,13.30
2023-04-06T00:22:35.137Z,13.50
2023-04-06T00:25:06.000Z,13.20
2023-04-06T00:27:37.113Z,13.40
2023-04-06T00:30:11.456Z,13.20
2023-04-06T00:32:42.651Z,13.10
2023-04-06T00:35:13.773Z,12.90
2023-04-06T00:37:44.495Z,12.90
2023-04-06T00:40:15.888Z,12.90
2023-04-06T00:42:46.733Z,12.80
2023-04-06T00:45:19.504Z,12.40
2023-04-06T00:47:50.920Z,12.20
2023-04-06T00:50:23.150Z,12.00
2023-04-06T00:52:54.016Z,11.90
2023-04-06T00:55:25.396Z,11.90
2023-04-06T00:57:56.368Z,11.90
2023-04-06T01:00:29.878Z,11.90
2023-04-06T01:03:01.323Z,11.80
2023-04-06T01:05:32.150Z,11.60
2023-04-06T01:08:03.231Z,11.60
2023-04-06T01:10:33.991Z,11.50
2023-04-06T01:13:05.101Z,11.40
2023-04-06T01:15:40.394Z,11.50
2023-04-06T01:18:12.354Z,11.60
2023-04-06T01:20:44.020Z,11.60
2023-04-06T01:23:17.199Z,11.60
2023-04-06T01:25:48.393Z,11.60
2023-04-06T01:28:19.114Z,11.60
2023-04-06T01:30:49.803Z,11.50
2023-04-06T01:33:21.046Z,11.40
2023-04-06T01:35:52.430Z,11.40
2023-04-06T01:38:26.328Z,11.30
2023-04-06T01:40:57.133Z,11.10
2023-04-06T01:43:28.280Z,11.00
2023-04-06T01:45:59.460Z,11.00
2023-04-06T01:48:30.886Z,10.90
2023-04-06T01:51:03.252Z,10.80
2023-04-06T01:53:36.338Z,10.80
2023-04-06T01:56:08.296Z,10.80
2023-04-06T01:58:39.316Z,10.70
2023-04-06T02:01:11.094Z,10.80
2023-04-06T02:03:42.137Z,10.70
2023-04-06T02:06:13.091Z,10.80
2023-04-06T02:08:48.145Z,10.70
2023-04-06T02:11:19.283Z,10.70
2023-04-06T02:13:50.916Z,10.70
2023-04-06T02:16:22.808Z,10.60
2023-04-06T02:18:54.830Z,10.50
2023-04-06T02:21:26.234Z,10.50
2023-04-06T02:23:59.265Z,10.30
2023-04-06T02:26:30.701Z,10.30
2023-04-06T02:29:01.630Z,10.30
2023-04-06T02:31:32.812Z,10.20
2023-04-06T02:34:04.753Z,10.20
2023-04-06T02:36:36.515Z,10.20
2023-04-06T02:39:10.221Z,10.10
2023-04-06T02:41:41.686Z,10.10
2023-04-06T02:44:14.282Z,10.00
2023-04-06T02:46:46.029Z,10.00
2023-04-06T02:49:18.276Z,9.90
2023-04-06T02:51:49.586Z,9.90
2023-04-06T02:54:23.905Z,9.80
2023-04-06T02:56:55.701Z,9.80
2023-04-06T02:59:27.809Z,9.70
2023-04-06T03:01:59.289Z,9.70
2023-04-06T03:04:31.424Z,9.60
2023-04-06T03:07:03.078Z,9.60
2023-04-06T03:09:37.082Z,9.60
2023-04-06T03:12:10.080Z,9.60
2023-04-06T03:14:43.849Z,9.60
2023-04-06T03:17:15.562Z,9.60
2023-04-06T03:19:47.391Z,9.50
2023-04-06T03:22:20.415Z,9.50
2023-04-06T03:24:54.334Z,9.50
2023-04-06T03:27:26.254Z,9.50
2023-04-06T03:29:58.664Z,9.50
2023-04-06T03:32:29.768Z,9.40
2023-04-06T03:35:00.878Z,9.40
2023-04-06T03:37:32.804Z,9.40
2023-04-06T03:40:06.232Z,9.40
2023-04-06T03:42:37.143Z,9.30
2023-04-06T03:45:10.501Z,9.30
2023-04-06T03:47:41.630Z,9.30
2023-04-06T03:50:13.419Z,9.40
2023-04-06T03:52:45.317Z,9.40
2023-04-06T03:55:18.634Z,9.30
2023-04-06T03:57:50.832Z,9.30
2023-04-06T04:00:22.331Z,9.30
2023-04-06T04:02:53.779Z,9.30
2023-04-06T04:05:27.235Z,9.20
2023-04-06T04:07:59.701Z,9.20
2023-04-06T04:10:32.744Z,9.30
2023-04-06T04:13:04.104Z,9.30
2023-04-06T04:15:35.187Z,9.30
2023-04-06T04:18:06.381Z,9.20
2023-04-06T04:20:38.741Z,9.10
2023-04-06T04:23:09.931Z,9.00
2023-04-06T04:25:43.271Z,9.00
2023-04-06T04:28:15.069Z,9.00
2023-04-06T04:30:47.476Z,8.90
2023-04-06T04:33:19.950Z,8.90
2023-04-06T04:35:51.972Z,8.90
2023-04-06T04:38:23.821Z,8.90
2023-04-06T04:40:57.596Z,8.90
2023-04-06T04:43:29.847Z,8.80
2023-04-06T04:46:04.086Z,8.80
2023-04-06T04:48:35.441Z,8.70
2023-04-06T04:51:08.550Z,8.60
2023-04-06T04:53:39.858Z,8.60
2023-04-06T04:56:13.779Z,8.60
2023-04-06T04:58:45.114Z,8.50
2023-04-06T05:01:16.500Z,8.40
2023-04-06T05:03:47.878Z,8.30
2023-04-06T05:06:19.038Z,8.30
2023-04-06T05:08:50.095Z,8.30
2023-04-06T05:11:23.746Z,8.30
2023-04-06T05:13:55.325Z,8.20
2023-04-06T05:16:26.304Z,8.20
2023-04-06T05:18:59.290Z,8.20
2023-04-06T05:21:31.196Z,8.20
2023-04-06T05:24:04.264Z,8.20
2023-04-06T05:26:37.837Z,8.10
2023-04-06T05:29:10.483Z,8.00
2023-04-06T05:31:42.195Z,8.00
2023-04-06T05:34:14.900Z,7.90
2023-04-06T05:36:46.436Z,7.90
2023-04-06T05:39:18.121Z,7.90
2023-04-06T05:41:53.567Z,7.80
2023-04-06T05:44:25.268Z,7.80
2023-04-06T05:46:56.454Z,7.70
2023-04-06T05:49:28.476Z,7.70
2023-04-06T05:52:00.226Z,7.70
2023-04-06T05:54:32.217Z,7.70
2023-04-06T05:57:06.956Z,7.70
2023-04-06T05:59:38.427Z,7.70
2023-04-06T06:02:10.015Z,7.70
2023-04-06T06:04:41.923Z,7.70
2023-04-06T06:07:14.068Z,7.70
2023-04-06T06:09:45.117Z,7.60
2023-04-06T06:12:19.500Z,7.70
2023-04-06T06:14:51.036Z,7.70
2023-04-06T06:17:22.421Z,7.70
2023-04-06T06:19:54.109Z,7.70
2023-04-06T06:22:25.534Z,7.70
2023-04-06T06:24:56.903Z,7.60
2023-04-06T06:27:31.151Z,7.60
2023-04-06T06:30:02.738Z,7.70
2023-04-06T06:32:34.210Z,7.70
2023-04-06T06:35:05.996Z,7.70
2023-04-06T06:37:37.389Z,7.70
2023-04-06T06:40:10.538Z,7.70
2023-04-06T06:42:44.444Z,7.70
2023-04-06T06:45:16.534Z,7.70
2023-04-06T06:47:48.339Z,7.70
2023-04-06T06:50:19.981Z,7.70
2023-04-06T06:52:51.449Z,7.60
2023-04-06T06:55:24.256Z,7.60
2023-04-06T06:57:58.260Z,7.60
2023-04-06T07:00:30.289Z,7.60
2023-04-06T07:03:02.693Z,7.60
2023-04-06T07:05:34.974Z,7.60
2023-04-06T07:08:06.455Z,7.60
2023-04-06T07:10:37.826Z,7.70
2023-04-06T07:13:12.087Z,7.70
2023-04-06T07:15:43.262Z,7.70
2023-04-06T07:18:14.653Z,7.70
2023-04-06T07:20:46.577Z,7.70
2023-04-06T07:23:18.061Z,7.80
2023-04-06T07:25:49.983Z,7.80
2023-04-06T07:28:24.233Z,7.60
2023-04-06T07:30:56.585Z,7.60
2023-04-06T07:33:31.843Z,7.60
2023-04-06T07:36:03.735Z,7.60
2023-04-06T07:38:35.377Z,7.60
2023-04-06T07:41:07.611Z,7.60
2023-04-06T07:43:41.530Z,7.60
2023-04-06T07:46:13.113Z,7.60
2023-04-06T07:48:46.536Z,7.60
2023-04-06T07:51:19.436Z,7.60
2023-04-06T07:53:50.601Z,7.50
2023-04-06T07:56:23.226Z,7.50
2023-04-06T07:58:59.177Z,7.50
2023-04-06T08:01:32.621Z,7.40
2023-04-06T08:04:05.009Z,7.40
2023-04-06T08:06:38.463Z,7.50
2023-04-06T08:09:10.410Z,7.50
2023-04-06T08:11:42.471Z,7.50
2023-04-06T08:14:15.998Z,7.50
2023-04-06T08:16:48.288Z,7.40
2023-04-06T08:19:20.925Z,7.40
2023-04-06T08:21:53.334Z,7.40
2023-04-06T08:24:24.571Z,7.40
2023-04-06T08:26:56.273Z,7.40
2023-04-06T08:29:33.436Z,7.30
2023-04-06T08:32:07.058Z,7.30
2023-04-06T08:34:39.545Z,7.30
2023-04-06T08:37:11.941Z,7.30
2023-04-06T08:39:43.807Z,7.30
2023-04-06T08:42:21.498Z,7.30
2023-04-06T08:44:55.053Z,7.40
2023-04-06T08:47:26.608Z,7.30
2023-04-06T08:49:59.240Z,7.30
2023-04-06T08:52:30.904Z,7.40
2023-04-06T08:55:03.130Z,7.30
2023-04-06T08:57:37.131Z,7.30
2023-04-06T09:00:14.402Z,7.30
2023-04-06T09:02:49.635Z,7.30
2023-04-06T09:05:21.794Z,7.40
2023-04-06T09:07:53.231Z,7.40
2023-04-06T09:10:25.912Z,7.40
2023-04-06T09:13:08.734Z,7.40
2023-04-06T09:15:43.636Z,7.40
2023-04-06T09:18:15.560Z,7.40
2023-04-06T09:20:47.204Z,7.40
2023-04-06T09:23:23.535Z,7.40
2023-04-06T09:25:55.414Z,7.40
2023-04-06T09:28:27.177Z,7.40
2023-04-06T09:31:01.253Z,7.40
2023-04-06T09:33:32.762Z,7.30
2023-04-06T09:36:04.232Z,7.20
2023-04-06T09:38:36.192Z,7.20
2023-04-06T09:41:08.185Z,7.20
2023-04-06T09:43:39.348Z,7.30
2023-04-06T09:46:12.774Z,7.20
2023-04-06T09:48:44.973Z,7.20
2023-04-06T09:51:22.585Z,7.30
2023-04-06T09:54:05.078Z,7.40
2023-04-06T09:56:42.420Z,7.40
2023-04-06T09:59:18.824Z,7.30
2023-04-06T10:01:55.175Z,7.20
2023-04-06T10:04:37.184Z,7.20
2023-04-06T10:07:10.475Z,7.20
2023-04-06T10:09:43.060Z,7.20
2023-04-06T10:12:15.564Z,7.20
2023-04-06T10:14:51.389Z,7.20
2023-04-06T10:17:25.865Z,7.10
2023-04-06T10:20:04.176Z,7.20
2023-04-06T10:22:43.594Z,7.20
2023-04-06T10:25:15.943Z,7.20
2023-04-06T10:27:47.492Z,7.40
2023-04-06T10:30:20.787Z,7.20
2023-04-06T10:32:54.266Z,7.10
2023-04-06T10:35:28.581Z,7.10
2023-04-06T10:38:06.398Z,7.30
2023-04-06T10:40:41.237Z,7.30
2023-04-06T10:43:13.615Z,7.20
2023-04-06T10:45:45.440Z,7.10
2023-04-06T10:48:23.468Z,7.10
2023-04-06T10:50:56.836Z,7.10
2023-04-06T10:53:30.087Z,7.10
2023-04-06T10:56:01.998Z,7.10
2023-04-06T10:58:34.364Z,7.20
2023-04-06T11:01:07.526Z,7.20
2023-04-06T11:03:49.779Z,7.10
2023-04-06T11:06:27.473Z,7.10
2023-04-06T11:08:59.415Z,7.10
2023-04-06T11:11:32.589Z,7.10
2023-04-06T11:14:05.175Z,7.10
2023-04-06T11:16:38.351Z,7.10
2023-04-06T11:19:14.449Z,7.10
2023-04-06T11:21:50.277Z,7.00
2023-04-06T11:24:23.284Z,7.00
2023-04-06T11:26:58.622Z,7.00
2023-04-06T11:29:32.178Z,6.80
2023-04-06T11:32:05.357Z,6.80
2023-04-06T11:34:42.057Z,6.80
2023-04-06T11:37:15.047Z,6.80
2023-04-06T11:39:51.938Z,6.80
2023-04-06T11:42:29.693Z,6.90
2023-04-06T11:45:02.816Z,6.90
2023-04-06T11:47:35.475Z,6.90
2023-04-06T11:50:17.484Z,7.00
2023-04-06T11:52:48.847Z,7.00
2023-04-06T11:55:23.147Z,6.90
2023-04-06T11:57:54.884Z,6.80
2023-04-06T12:00:26.977Z,6.70
2023-04-06T12:02:58.029Z,6.80
2023-04-06T12:05:32.801Z,6.80
2023-04-06T12:08:04.107Z,6.70
2023-04-06T12:10:36.458Z,6.70
2023-04-06T12:13:08.028Z,6.80
2023-04-06T12:15:39.908Z,6.80
2023-04-06T12:18:11.340Z,6.70
2023-04-06T12:20:45.652Z,6.70
2023-04-06T12:23:17.228Z,6.70
2023-04-06T12:25:48.616Z,6.70
2023-04-06T12:28:23.154Z,6.70
2023-04-06T12:30:55.849Z,6.70
2023-04-06T12:33:27.983Z,6.70
2023-04-06T12:36:02.122Z,6.70
2023-04-06T12:38:33.767Z,6.70
2023-04-06T12:41:05.469Z,6.70
2023-04-06T12:43:36.815Z,6.70
2023-04-06T12:46:08.757Z,6.70
2023-04-06T12:48:40.441Z,6.70
2023-04-06T12:51:14.558Z,6.70
2023-04-06T12:53:46.020Z,6.70
2023-04-06T12:56:19.505Z,6.70
2023-04-06T12:58:50.658Z,6.70
2023-04-06T13:01:22.035Z,6.70
2023-04-06T13:03:53.721Z,6.70
2023-04-06T13:06:29.173Z,6.70
2023-04-06T13:09:00.658Z,6.70
2023-04-06T13:11:32.085Z,6.70
2023-04-06T13:14:03.652Z,6.70
2023-04-06T13:16:34.952Z,6.70
2023-04-06T13:19:06.396Z,6.70
2023-04-06T13:21:40.226Z,6.70
2023-04-06T13:24:11.898Z,6.70
2023-04-06T13:26:43.378Z,6.70
2023-04-06T13:29:15.225Z,6.70
2023-04-06T13:31:46.673Z,6.70
2023-04-06T13:34:18.579Z,6.70
2023-04-06T13:36:51.883Z,6.70
2023-04-06T13:39:23.611Z,6.60
2023-04-06T13:41:55.336Z,6.60
2023-04-06T13:44:27.200Z,6.60
2023-04-06T13:46:58.723Z,6.60
2023-04-06T13:49:31.313Z,6.70
2023-04-06T13:52:05.071Z,6.70
2023-04-06T13:54:37.149Z,6.70
2023-04-06T13:57:09.554Z,6.70
2023-04-06T13:59:41.978Z,6.70
2023-04-06T14:02:15.900Z,6.70
2023-04-06T14:04:47.416Z,6.70
2023-04-06T14:07:22.291Z,6.70
2023-04-06T14:09:54.732Z,6.70
2023-04-06T14:12:25.737Z,6.70
2023-04-06T14:14:57.775Z,6.80
2023-04-06T14:17:29.245Z,6.60
2023-04-06T14:20:01.070Z,6.60
2023-04-06T14:22:34.911Z,6.80
2023-04-06T14:25:06.348Z,6.80
2023-04-06T14:27:38.299Z,6.80
2023-04-06T14:30:11.427Z,6.80
2023-04-06T14:32:43.120Z,6.80
2023-04-06T14:35:15.177Z,6.80
2023-04-06T14:37:49.647Z,6.90
2023-04-06T14:40:21.182Z,6.90
2023-04-06T14:42:53.579Z,6.90
2023-04-06T14:45:25.754Z,6.90
2023-04-06T14:47:57.857Z,7.00
2023-04-06T14:50:29.756Z,7.00
2023-04-06T14:53:03.619Z,7.10
2023-04-06T14:55:35.102Z,7.10
2023-04-06T14:58:06.644Z,7.20
2023-04-06T15:00:39.405Z,7.20
2023-04-06T15:03:12.066Z,7.20
2023-04-06T15:05:43.597Z,7.20
2023-04-06T15:08:17.642Z,7.20
2023-04-06T15:10:49.000Z,7.40
2023-04-06T15:13:20.848Z,7.40
2023-04-06T15:15:55.320Z,7.50
2023-04-06T15:18:27.781Z,7.70
2023-04-06T15:20:59.743Z,7.80
2023-04-06T15:23:35.905Z,8.00
2023-04-06T15:26:07.825Z,8.10
2023-04-06T15:28:40.126Z,8.10
2023-04-06T15:31:33.060Z,8.20
2023-04-06T15:34:09.776Z,8.30
2023-04-06T15:36:44.676Z,8.30
2023-04-06T15:39:17.982Z,8.40
2023-04-06T15:41:53.012Z,8.40
2023-04-06T15:44:24.730Z,8.40
2023-04-06T15:46:57.289Z,8.40
2023-04-06T15:49:28.861Z,8.40
2023-04-06T15:52:01.327Z,8.50
2023-04-06T15:54:34.812Z,8.60
2023-04-06T15:57:06.422Z,8.60
2023-04-06T15:59:37.816Z,8.60
2023-04-06T16:02:09.627Z,8.60
2023-04-06T16:04:41.166Z,8.70
2023-04-06T16:07:12.409Z,8.70
2023-04-06T16:09:46.073Z,8.80
2023-04-06T16:12:17.411Z,8.80
2023-04-06T16:14:49.138Z,9.00
2023-04-06T16:17:20.655Z,9.20
2023-04-06T16:19:52.943Z,9.20
2023-04-06T16:22:24.682Z,9.20
2023-04-06T16:24:59.035Z,9.40
2023-04-06T16:27:30.448Z,9.50
2023-04-06T16:32:38.908Z,9.90
2023-04-06T16:35:11.850Z,10.10
2023-04-06T16:37:43.030Z,10.30
2023-04-06T16:40:16.925Z,10.40
2023-04-06T16:42:49.342Z,10.40
2023-04-06T16:45:20.969Z,10.50
2023-04-06T16:47:53.053Z,10.60
2023-04-06T16:50:24.570Z,10.70
2023-04-06T16:52:56.330Z,10.70
2023-04-06T16:55:30.685Z,10.80
2023-04-06T16:58:03.283Z,10.90
2023-04-06T17:00:34.955Z,10.80
2023-04-06T17:03:07.051Z,11.00
2023-04-06T17:05:39.234Z,10.90
2023-04-06T17:08:10.448Z,11.20
2023-04-06T17:10:58.970Z,11.30
2023-04-06T17:13:35.072Z,11.30
2023-04-06T17:16:06.508Z,11.50
2023-04-06T17:18:38.232Z,11.20
2023-04-06T17:21:13.364Z,11.40
2023-04-06T17:23:44.708Z,11.60
2023-04-06T17:26:18.328Z,11.70
2023-04-06T17:28:49.764Z,11.70
2023-04-06T17:31:22.043Z,11.70
2023-04-06T17:33:53.151Z,11.70
2023-04-06T17:36:25.788Z,11.70
2023-04-06T17:38:56.982Z,11.80
2023-04-06T17:41:33.681Z,11.80
2023-04-06T17:44:04.596Z,11.90
2023-04-06T17:46:36.206Z,11.60
2023-04-06T17:49:09.849Z,11.70
2023-04-06T17:51:41.101Z,11.80
2023-04-06T17:54:12.587Z,11.90
2023-04-06T17:56:50.477Z,12.10
2023-04-06T17:59:22.661Z,12.20
2023-04-06T18:01:55.062Z,12.30
2023-04-06T18:04:27.068Z,12.30
2023-04-06T18:06:58.340Z,12.20
2023-04-06T18:09:29.717Z,12.30
2023-04-06T18:12:03.263Z,12.10
2023-04-06T18:14:34.706Z,12.10
2023-04-06T18:17:06.637Z,12.30
2023-04-06T18:19:42.910Z,12.40
2023-04-06T18:22:15.452Z,12.50
2023-04-06T18:24:46.895Z,12.70
2023-04-06T18:27:22.433Z,13.00
2023-04-06T18:29:54.390Z,13.10
2023-04-06T18:32:31.691Z,13.20
2023-04-06T18:35:03.895Z,13.20
2023-04-06T18:37:35.976Z,13.10
2023-04-06T18:40:08.538Z,13.30
2023-04-06T18:42:41.582Z,13.20
2023-04-06T18:45:14.293Z,13.50
2023-04-06T18:47:45.712Z,13.60
2023-04-06T18:50:17.087Z,13.80
2023-04-06T18:52:48.672Z,13.90
2023-04-06T18:55:20.340Z,13.90
2023-04-06T18:57:53.597Z,13.80
2023-04-06T19:00:25.435Z,14.00
2023-04-06T19:02:57.018Z,13.60
2023-04-06T19:05:29.166Z,13.80
2023-04-06T19:08:00.153Z,14.00
2023-04-06T19:10:32.483Z,14.10
2023-04-06T19:13:06.562Z,14.50
2023-04-06T19:15:38.884Z,14.40
2023-04-06T19:18:10.664Z,14.60
2023-04-06T19:20:42.067Z,14.40
2023-04-06T19:23:13.491Z,14.20
2023-04-06T19:25:47.437Z,14.10
2023-04-06T19:28:22.512Z,13.90
2023-04-06T19:30:55.412Z,14.00
2023-04-06T19:33:26.767Z,14.20
2023-04-06T19:35:58.305Z,14.10
2023-04-06T19:38:30.301Z,14.20
2023-04-06T19:41:01.777Z,14.20
2023-04-06T19:43:38.529Z,14.20
2023-04-06T19:46:09.842Z,14.20
2023-04-06T19:48:41.761Z,14.30
2023-04-06T19:51:15.067Z,14.30
2023-04-06T19:53:47.387Z,14.30
2023-04-06T19:56:19.216Z,14.20
2023-04-06T19:58:53.220Z,14.30
2023-04-06T20:01:25.254Z,14.40
2023-04-06T20:03:57.543Z,14.30
2023-04-06T20:06:29.951Z,14.20
2023-04-06T20:09:02.272Z,14.00
2023-04-06T20:11:33.789Z,13.90
2023-04-06T20:14:08.518Z,14.00
2023-04-06T20:16:39.488Z,13.90
2023-04-06T20:19:10.805Z,13.80
2023-04-06T20:21:42.038Z,13.70
2023-04-06T20:24:13.789Z,13.70
2023-04-06T20:26:45.015Z,14.00
2023-04-06T20:29:17.984Z,14.00
2023-04-06T20:31:48.944Z,13.90
2023-04-06T20:34:20.062Z,13.80
2023-04-06T20:36:51.514Z,14.20
2023-04-06T20:39:22.776Z,14.20
2023-04-06T20:41:54.583Z,14.30
2023-04-06T20:44:28.932Z,14.30
2023-04-06T20:47:00.528Z,14.50
2023-04-06T20:49:31.939Z,14.20
2023-04-06T20:52:03.949Z,14.30
2023-04-06T20:54:34.681Z,14.40
2023-04-06T20:57:05.871Z,14.50
2023-04-06T20:59:38.549Z,14.60
2023-04-06T21:02:09.868Z,14.40
2023-04-06T21:04:41.483Z,14.20
2023-04-06T21:07:12.368Z,14.10
2023-04-06T21:09:43.747Z,14.10
2023-04-06T21:12:14.998Z,13.90
2023-04-06T21:14:49.937Z,13.90
2023-04-06T21:17:22.113Z,14.00
2023-04-06T21:19:54.654Z,14.20
2023-04-06T21:22:25.808Z,14.40
2023-04-06T21:24:57.194Z,14.40
2023-04-06T21:27:29.369Z,14.30
2023-04-06T21:30:02.638Z,14.30
2023-04-06T21:32:33.786Z,13.70
2023-04-06T21:35:05.118Z,13.70
2023-04-06T21:37:36.681Z,13.90
2023-04-06T21:40:08.252Z,13.80
2023-04-06T21:42:39.143Z,14.00
2023-04-06T21:45:13.490Z,14.00
2023-04-06T21:47:44.214Z,14.10
2023-04-06T21:50:15.402Z,14.00
2023-04-06T21:52:46.873Z,13.90
2023-04-06T21:55:18.683Z,13.80
2023-04-06T21:57:50.616Z,13.70
2023-04-06T22:00:25.712Z,13.60
2023-04-06T22:02:56.791Z,13.50
2023-04-06T22:05:28.378Z,13.60
2023-04-06T22:08:02.877Z,13.60
2023-04-06T22:10:34.295Z,13.50
2023-04-06T22:13:05.696Z,13.40
2023-04-06T22:15:39.901Z,13.30
2023-04-06T22:18:11.239Z,13.20
2023-04-06T22:20:43.086Z,13.20
2023-04-06T22:23:14.920Z,13.00
2023-04-06T22:25:46.129Z,12.90
2023-04-06T22:28:17.838Z,12.80
2023-04-06T22:30:50.923Z,12.80
2023-04-06T22:33:22.022Z,12.80
2023-04-06T22:35:53.970Z,12.80
2023-04-06T22:38:25.116Z,12.80
2023-04-06T22:40:56.078Z,12.80
2023-04-06T22:43:27.457Z,12.80
2023-04-06T22:46:03.550Z,12.90
2023-04-06T22:48:35.061Z,12.90
2023-04-06T22:51:07.163Z,13.00
2023-04-06T22:53:40.549Z,13.00
2023-04-06T22:56:13.454Z,12.90
2023-04-06T22:58:45.757Z,12.90
2023-04-06T23:01:19.747Z,12.90
2023-04-06T23:03:52.078Z,12.90
2023-04-06T23:06:24.043Z,12.90
2023-04-06T23:08:55.446Z,12.90
2023-04-06T23:11:27.616Z,12.80
2023-04-06T23:13:58.878Z,12.60
2023-04-06T23:16:33.206Z,12.70
2023-04-06T23:19:04.832Z,12.60
2023-04-06T23:21:36.785Z,12.60
2023-04-06T23:24:08.290Z,12.60
2023-04-06T23:26:40.182Z,12.50
2023-04-06T23:29:11.907Z,12.40
2023-04-06T23:31:47.355Z,12.40
2023-04-06T23:34:19.732Z,12.30
2023-04-06T23:36:51.397Z,12.20
2023-04-06T23:39:23.668Z,12.20
2023-04-06T23:41:54.798Z,12.20
2023-04-06T23:44:26.280Z,12.20
2023-04-06T23:46:59.480Z,12.10
2023-04-06T23:49:30.784Z,12.10
2023-04-06T23:52:02.270Z,12.00
2023-04-06T23:54:33.048Z,11.80
2023-04-06T23:57:03.837Z,11.80
2023-04-06T23:59:34.612Z,11.80
